createdAt,value
2016-04-28T00:00:09.306Z,51
2016-04-28T00:01:07.716Z,51
2016-04-28T00:02:05.936Z,51
2016-04-28T00:03:06.970Z,51
2016-04-28T00:04:05.255Z,51
2016-04-28T00:05:03.539Z,51
2016-04-28T00:06:01.822Z,51
2016-04-28T00:07:00.121Z,51
2016-04-28T00:07:58.406Z,51
2016-04-28T00:08:56.705Z,51
2016-04-28T00:09:54.989Z,51
2016-04-28T00:10:53.304Z,52
2016-04-28T00:11:51.870Z,52
2016-04-28T00:12:53.044Z,52
2016-04-28T00:13:51.438Z,52
2016-04-28T00:14:49.971Z,52
2016-04-28T00:15:48.520Z,52
2016-04-28T00:16:47.055Z,52
2016-04-28T00:17:45.604Z,52
2016-04-28T00:18:44.170Z,52
2016-04-28T00:19:42.687Z,52
2016-04-28T00:20:41.237Z,52
2016-04-28T00:21:39.928Z,52
2016-04-28T00:22:40.821Z,52
2016-04-28T00:23:39.620Z,52
2016-04-28T00:24:38.420Z,52
2016-04-28T00:25:37.314Z,52
2016-04-28T00:26:36.926Z,52
2016-04-28T00:27:34.928Z,52
2016-04-28T00:28:33.633Z,52
2016-04-28T00:29:32.512Z,52
2016-04-28T00:30:31.202Z,52
2016-04-28T00:31:30.046Z,52
2016-04-28T00:32:31.066Z,52
2016-04-28T00:33:29.879Z,52
2016-04-28T00:34:28.663Z,52
2016-04-28T00:35:27.447Z,52
2016-04-28T00:36:26.262Z,52
2016-04-28T00:37:25.046Z,52
2016-04-28T00:38:23.846Z,52
2016-04-28T00:39:22.630Z,52
2016-04-28T00:40:21.445Z,52
2016-04-28T00:41:20.307Z,52
2016-04-28T00:42:21.309Z,52
2016-04-28T00:43:20.219Z,52
2016-04-28T00:44:18.893Z,52
2016-04-28T00:45:17.693Z,52
2016-04-28T00:46:16.617Z,52
2016-04-28T00:47:15.276Z,52
2016-04-28T00:48:14.201Z,52
2016-04-28T00:49:12.875Z,52
2016-04-28T00:50:11.675Z,52
2016-04-28T00:51:10.537Z,52
2016-04-28T00:52:11.665Z,52
2016-04-28T00:53:10.339Z,52
2016-04-28T00:54:09.139Z,52
2016-04-28T00:55:07.939Z,52
2016-04-28T00:56:06.847Z,52
2016-04-28T00:57:05.522Z,52
2016-04-28T00:58:04.337Z,52
2016-04-28T00:59:03.246Z,52
2016-04-28T01:00:01.920Z,52
2016-04-28T01:01:00.892Z,52
2016-04-28T01:02:01.832Z,52
2016-04-28T01:03:00.710Z,52
2016-04-28T01:03:59.400Z,52
2016-04-28T01:04:58.184Z,52
2016-04-28T01:05:56.983Z,52
2016-04-28T01:06:55.783Z,52
2016-04-28T01:07:54.566Z,52
2016-04-28T01:08:53.476Z,52
2016-04-28T01:09:52.166Z,52
2016-04-28T01:10:52.621Z,52
2016-04-28T01:11:52.046Z,52
2016-04-28T01:12:50.830Z,52
2016-04-28T01:13:49.755Z,52
2016-04-28T01:14:48.429Z,52
2016-04-28T01:15:47.338Z,52
2016-04-28T01:16:46.029Z,52
2016-04-28T01:17:44.844Z,52
2016-04-28T01:18:43.628Z,52
2016-04-28T01:19:42.412Z,53
2016-04-28T01:20:41.523Z,53
2016-04-28T01:21:42.542Z,53
2016-04-28T01:22:41.592Z,53
2016-04-28T01:23:40.641Z,53
2016-04-28T01:24:39.691Z,53
2016-04-28T01:25:38.740Z,53
2016-04-28T01:27:36.839Z,53
2016-04-28T01:28:35.936Z,53
2016-04-28T01:29:34.939Z,53
2016-04-28T01:30:34.051Z,53
2016-04-28T01:31:35.069Z,53
2016-04-28T01:32:34.118Z,53
2016-04-28T01:33:33.183Z,53
2016-04-28T01:34:32.280Z,53
2016-04-28T01:35:31.296Z,53
2016-04-28T01:36:30.330Z,53
2016-04-28T01:37:29.379Z,53
2016-04-28T01:38:28.555Z,53
2016-04-28T01:39:27.479Z,53
2016-04-28T01:40:26.591Z,53
2016-04-28T01:41:27.765Z,53
2016-04-28T01:42:26.940Z,53
2016-04-28T01:43:25.958Z,53
2016-04-28T01:44:25.039Z,53
2016-04-28T01:45:24.182Z,53
2016-04-28T01:46:23.262Z,53
2016-04-28T01:47:22.172Z,53
2016-04-28T01:48:21.221Z,53
2016-04-28T01:49:20.381Z,53
2016-04-28T01:50:19.383Z,53
2016-04-28T01:51:20.402Z,53
2016-04-28T01:52:19.451Z,53
2016-04-28T01:54:17.660Z,53
2016-04-28T01:55:16.615Z,53
2016-04-28T01:56:16.368Z,53
2016-04-28T01:57:14.792Z,53
2016-04-28T01:58:13.748Z,53
2016-04-28T01:59:12.797Z,53
2016-04-28T02:00:11.911Z,53
2016-04-28T02:01:13.053Z,53
2016-04-28T02:02:11.977Z,53
2016-04-28T02:03:11.028Z,53
2016-04-28T02:04:10.077Z,53
2016-04-28T02:05:09.142Z,53
2016-04-28T02:06:08.301Z,53
2016-04-28T02:07:07.241Z,53
2016-04-28T02:08:06.400Z,53
2016-04-28T02:09:05.481Z,53
2016-04-28T02:10:04.437Z,53
2016-04-28T02:11:05.424Z,53
2016-04-28T02:12:04.521Z,53
2016-04-28T02:13:03.570Z,53
2016-04-28T02:14:02.619Z,53
2016-04-28T02:15:01.950Z,53
2016-04-28T02:16:01.235Z,53
2016-04-28T02:17:00.534Z,53
2016-04-28T02:17:59.865Z,53
2016-04-28T02:18:59.149Z,53
2016-04-28T02:19:58.495Z,53
2016-04-28T02:20:59.529Z,53
2016-04-28T02:21:58.828Z,53
2016-04-28T02:22:58.149Z,53
2016-04-28T02:23:57.559Z,53
2016-04-28T02:24:56.749Z,53
2016-04-28T02:25:56.048Z,53
2016-04-28T02:26:56.379Z,53
2016-04-28T02:27:54.647Z,53
2016-04-28T02:28:53.963Z,53
2016-04-28T02:29:53.325Z,53
2016-04-28T02:30:54.374Z,53
2016-04-28T02:31:53.642Z,53
2016-04-28T02:32:52.958Z,53
2016-04-28T02:33:52.257Z,53
2016-04-28T02:34:51.556Z,53
2016-04-28T02:35:50.857Z,53
2016-04-28T02:36:50.172Z,53
2016-04-28T02:37:49.487Z,53
2016-04-28T02:38:48.786Z,53
2016-04-28T02:39:48.132Z,53
2016-04-28T02:40:49.870Z,53
2016-04-28T02:41:50.592Z,53
2016-04-28T02:42:47.766Z,53
2016-04-28T02:43:47.190Z,53
2016-04-28T02:44:46.381Z,53
2016-04-28T02:45:45.680Z,53
2016-04-28T02:46:45.011Z,53
2016-04-28T02:47:44.294Z,53
2016-04-28T02:48:43.595Z,53
2016-04-28T02:49:42.972Z,53
2016-04-28T02:50:43.974Z,53
2016-04-28T02:51:43.274Z,53
2016-04-28T02:52:42.589Z,53
2016-04-28T02:53:41.921Z,53
2016-04-28T02:54:41.204Z,53
2016-04-28T02:55:40.504Z,53
2016-04-28T02:56:40.054Z,53
2016-04-28T02:57:39.103Z,53
2016-04-28T02:58:38.418Z,53
2016-04-28T02:59:37.889Z,53
2016-04-28T03:00:38.784Z,53
2016-04-28T03:01:38.129Z,53
2016-04-28T03:02:37.398Z,53
2016-04-28T03:03:36.697Z,53
2016-04-28T03:04:35.997Z,53
2016-04-28T03:05:35.437Z,53
2016-04-28T03:06:34.627Z,53
2016-04-28T03:07:33.911Z,53
2016-04-28T03:08:33.223Z,53
2016-04-28T03:09:32.570Z,53
2016-04-28T03:10:33.636Z,53
2016-04-28T03:11:33.325Z,53
2016-04-28T03:12:32.203Z,53
2016-04-28T03:13:31.519Z,53
2016-04-28T03:14:30.927Z,53
2016-04-28T03:15:30.133Z,53
2016-04-28T03:16:29.433Z,53
2016-04-28T03:17:28.732Z,53
2016-04-28T03:18:28.047Z,54
2016-04-28T03:19:27.644Z,54
2016-04-28T03:20:28.709Z,54
2016-04-28T03:21:28.243Z,54
2016-04-28T03:22:27.793Z,54
2016-04-28T03:23:27.358Z,54
2016-04-28T03:24:26.891Z,54
2016-04-28T03:25:26.457Z,54
2016-04-28T03:26:25.960Z,54
2016-04-28T03:27:25.696Z,54
2016-04-28T03:28:25.121Z,54
2016-04-28T03:29:24.733Z,54
2016-04-28T03:30:25.768Z,54
2016-04-28T03:31:25.426Z,54
2016-04-28T03:32:24.898Z,54
2016-04-28T03:33:24.431Z,54
2016-04-28T03:34:23.997Z,54
2016-04-28T03:35:23.546Z,54
2016-04-28T03:36:23.095Z,54
2016-04-28T03:37:22.770Z,54
2016-04-28T03:38:22.211Z,54
2016-04-28T03:39:21.839Z,54
2016-04-28T03:40:22.966Z,54
2016-04-28T03:41:23.546Z,54
2016-04-28T03:42:21.909Z,54
2016-04-28T03:43:21.646Z,54
2016-04-28T03:44:21.195Z,54
2016-04-28T03:45:20.635Z,54
2016-04-28T03:46:20.186Z,54
2016-04-28T03:47:19.750Z,54
2016-04-28T03:48:19.299Z,54
2016-04-28T03:49:18.928Z,54
2016-04-28T03:50:19.946Z,54
2016-04-28T03:51:19.511Z,54
2016-04-28T03:52:19.170Z,54
2016-04-28T03:53:18.610Z,54
2016-04-28T03:54:18.160Z,54
2016-04-28T03:55:17.724Z,54
2016-04-28T03:56:17.306Z,54
2016-04-28T03:57:16.793Z,54
2016-04-28T03:58:16.421Z,54
2016-04-28T03:59:16.017Z,54
2016-04-28T04:00:17.145Z,54
2016-04-28T04:01:16.585Z,54
2016-04-28T04:02:16.276Z,54
2016-04-28T04:03:15.700Z,54
2016-04-28T04:04:15.421Z,54
2016-04-28T04:05:14.831Z,54
2016-04-28T04:06:14.395Z,54
2016-04-28T04:07:13.945Z,54
2016-04-28T04:08:13.494Z,54
2016-04-28T04:09:13.231Z,54
2016-04-28T04:10:14.140Z,54
2016-04-28T04:11:14.628Z,54
2016-04-28T04:12:13.270Z,54
2016-04-28T04:13:12.805Z,54
2016-04-28T04:14:12.355Z,54
2016-04-28T04:15:11.919Z,54
2016-04-28T04:16:11.469Z,54
2016-04-28T04:17:11.284Z,54
2016-04-28T04:18:11.100Z,54
2016-04-28T04:19:11.008Z,54
2016-04-28T04:20:12.104Z,54
2016-04-28T04:21:11.795Z,54
2016-04-28T04:22:11.594Z,54
2016-04-28T04:23:11.410Z,54
2016-04-28T04:24:11.240Z,54
2016-04-28T04:25:11.041Z,54
2016-04-28T04:26:10.902Z,54
2016-04-28T04:27:10.671Z,54
2016-04-28T04:28:10.610Z,54
2016-04-28T04:29:10.332Z,54
2016-04-28T04:30:11.460Z,54
2016-04-28T04:31:11.181Z,54
2016-04-28T04:32:11.012Z,54
2016-04-28T04:33:10.796Z,54
2016-04-28T04:34:10.611Z,54
2016-04-28T04:35:10.411Z,54
2016-04-28T04:36:10.225Z,54
2016-04-28T04:37:10.026Z,54
2016-04-28T04:38:09.840Z,54
2016-04-28T04:39:09.828Z,54
2016-04-28T04:40:10.737Z,54
2016-04-28T04:41:10.473Z,54
2016-04-28T04:42:11.570Z,54
2016-04-28T04:43:10.150Z,54
2016-04-28T04:44:09.981Z,54
2016-04-28T04:45:09.781Z,54
2016-04-28T04:46:09.597Z,54
2016-04-28T04:47:09.396Z,54
2016-04-28T04:48:09.211Z,54
2016-04-28T04:49:09.199Z,54
2016-04-28T04:50:10.107Z,54
2016-04-28T04:51:10.032Z,54
2016-04-28T04:52:09.722Z,54
2016-04-28T04:53:09.538Z,54
2016-04-28T04:54:09.352Z,54
2016-04-28T04:55:09.152Z,54
2016-04-28T04:56:08.921Z,54
2016-04-28T04:57:11.516Z,54
2016-04-28T04:58:08.598Z,54
2016-04-28T04:59:08.459Z,54
2016-04-28T05:00:09.494Z,54
2016-04-28T05:01:09.434Z,54
2016-04-28T05:02:09.124Z,54
2016-04-28T05:03:08.923Z,54
2016-04-28T05:04:08.739Z,54
2016-04-28T05:05:08.554Z,54
2016-04-28T05:06:08.337Z,54
2016-04-28T05:07:08.184Z,54
2016-04-28T05:08:07.968Z,54
2016-04-28T05:09:07.831Z,54
2016-04-28T05:10:08.864Z,54
2016-04-28T05:11:09.991Z,54
2016-04-28T05:12:08.463Z,54
2016-04-28T05:13:08.279Z,54
2016-04-28T05:14:08.203Z,54
2016-04-28T05:15:07.893Z,54
2016-04-28T05:16:07.725Z,54
2016-04-28T05:17:07.524Z,54
2016-04-28T05:18:07.448Z,54
2016-04-28T05:19:07.185Z,54
2016-04-28T05:20:08.220Z,54
2016-04-28T05:21:08.018Z,54
2016-04-28T05:22:07.834Z,54
2016-04-28T05:23:07.633Z,54
2016-04-28T05:24:07.448Z,54
2016-04-28T05:25:07.263Z,54
2016-04-28T05:26:07.783Z,54
2016-04-28T05:27:07.082Z,54
2016-04-28T05:28:06.803Z,54
2016-04-28T05:29:06.697Z,54
2016-04-28T05:30:07.699Z,54
2016-04-28T05:31:07.155Z,54
2016-04-28T05:32:06.689Z,54
2016-04-28T05:33:06.364Z,54
2016-04-28T05:34:05.803Z,54
2016-04-28T05:35:05.510Z,54
2016-04-28T05:36:04.918Z,54
2016-04-28T05:37:04.467Z,54
2016-04-28T05:38:04.283Z,54
2016-04-28T05:39:03.896Z,54
2016-04-28T05:40:05.039Z,54
2016-04-28T05:41:04.588Z,54
2016-04-28T05:42:04.434Z,54
2016-04-28T05:43:03.578Z,54
2016-04-28T05:44:03.175Z,54
2016-04-28T05:45:02.693Z,54
2016-04-28T05:46:02.258Z,54
2016-04-28T05:47:01.807Z,54
2016-04-28T05:48:01.358Z,54
2016-04-28T05:49:00.985Z,54
2016-04-28T05:50:02.003Z,54
2016-04-28T05:51:01.568Z,54
2016-04-28T05:52:01.228Z,54
2016-04-28T05:53:00.683Z,54
2016-04-28T05:54:00.217Z,54
2016-04-28T05:54:59.782Z,54
2016-04-28T05:55:59.363Z,54
2016-04-28T05:56:59.413Z,54
2016-04-28T05:57:58.571Z,54
2016-04-28T05:58:58.058Z,54
2016-04-28T05:59:59.233Z,54
2016-04-28T06:00:58.757Z,54
2016-04-28T06:01:58.254Z,54
2016-04-28T06:02:57.844Z,54
2016-04-28T06:03:57.434Z,54
2016-04-28T06:04:56.900Z,54
2016-04-28T06:05:56.126Z,54
2016-04-28T06:06:55.440Z,54
2016-04-28T06:07:54.755Z,54
2016-04-28T06:08:54.242Z,54
2016-04-28T06:09:55.164Z,54
2016-04-28T06:10:54.478Z,54
2016-04-28T06:11:53.954Z,54
2016-04-28T06:12:53.087Z,54
2016-04-28T06:13:52.406Z,54
2016-04-28T06:14:52.071Z,54
2016-04-28T06:15:51.640Z,54
2016-04-28T06:16:51.192Z,54
2016-04-28T06:17:50.758Z,54
2016-04-28T06:19:51.284Z,54
2016-04-28T06:20:50.944Z,54
2016-04-28T06:21:50.417Z,54
2016-04-28T06:22:49.935Z,54
2016-04-28T06:23:49.626Z,54
2016-04-28T06:24:49.052Z,54
2016-04-28T06:25:48.728Z,54
2016-04-28T06:26:48.652Z,54
2016-04-28T06:27:47.671Z,54
2016-04-28T06:28:47.361Z,54
2016-04-28T06:29:48.365Z,54
2016-04-28T06:30:48.040Z,54
2016-04-28T06:31:47.479Z,54
2016-04-28T06:32:47.046Z,54
2016-04-28T06:33:46.610Z,54
2016-04-28T06:34:46.191Z,54
2016-04-28T06:35:45.694Z,54
2016-04-28T06:37:44.948Z,55
2016-04-28T06:38:44.670Z,54
2016-04-28T06:39:45.689Z,54
2016-04-28T06:40:45.520Z,55
2016-04-28T06:41:45.287Z,55
2016-04-28T06:42:45.134Z,55
2016-04-28T06:43:45.059Z,55
2016-04-28T06:44:44.764Z,55
2016-04-28T06:45:44.673Z,55
2016-04-28T06:46:44.364Z,55
2016-04-28T06:47:44.179Z,54
2016-04-28T06:48:43.822Z,55
2016-04-28T06:49:44.794Z,55
2016-04-28T06:50:44.608Z,55
2016-04-28T06:51:44.425Z,55
2016-04-28T06:52:44.224Z,55
2016-04-28T06:53:44.055Z,55
2016-04-28T06:54:43.854Z,54
2016-04-28T06:55:43.653Z,55
2016-04-28T06:56:43.469Z,55
2016-04-28T06:57:43.721Z,55
2016-04-28T06:58:43.146Z,55
2016-04-28T06:59:44.273Z,54
2016-04-28T07:00:44.010Z,55
2016-04-28T07:01:43.780Z,54
2016-04-28T07:02:43.719Z,54
2016-04-28T07:03:43.424Z,54
2016-04-28T07:04:43.225Z,54
2016-04-28T07:05:43.024Z,54
2016-04-28T07:06:42.839Z,54
2016-04-28T07:07:42.639Z,54
2016-04-28T07:08:42.517Z,54
2016-04-28T07:09:43.550Z,54
2016-04-28T07:10:43.351Z,54
2016-04-28T07:11:43.618Z,55
2016-04-28T07:12:44.246Z,54
2016-04-28T07:13:43.140Z,54
2016-04-28T07:14:42.814Z,54
2016-04-28T07:15:42.629Z,54
2016-04-28T07:16:42.475Z,54
2016-04-28T07:17:42.259Z,54
2016-04-28T07:18:42.122Z,54
2016-04-28T07:19:43.155Z,54
2016-04-28T07:20:43.080Z,54
2016-04-28T07:21:42.770Z,54
2016-04-28T07:22:42.681Z,54
2016-04-28T07:23:42.402Z,54
2016-04-28T07:24:42.232Z,54
2016-04-28T07:25:42.001Z,54
2016-04-28T07:26:41.754Z,54
2016-04-28T07:27:42.631Z,54
2016-04-28T07:28:41.492Z,54
2016-04-28T07:29:42.527Z,55
2016-04-28T07:30:42.327Z,55
2016-04-28T07:31:42.251Z,55
2016-04-28T07:32:41.958Z,55
2016-04-28T07:33:41.789Z,55
2016-04-28T07:34:41.572Z,55
2016-04-28T07:35:41.372Z,55
2016-04-28T07:36:41.296Z,55
2016-04-28T07:37:41.033Z,55
2016-04-28T07:38:40.863Z,55
2016-04-28T07:39:41.882Z,55
2016-04-28T07:40:41.807Z,55
2016-04-28T07:41:41.763Z,55
2016-04-28T07:42:41.437Z,54
2016-04-28T07:43:40.862Z,54
2016-04-28T07:44:40.408Z,54
2016-04-28T07:45:40.083Z,54
2016-04-28T07:46:39.274Z,54
2016-04-28T07:47:38.574Z,54
2016-04-28T07:48:38.044Z,54
2016-04-28T07:49:38.953Z,54
2016-04-28T07:50:38.253Z,54
2016-04-28T07:51:37.568Z,54
2016-04-28T07:52:36.867Z,53
2016-04-28T07:53:35.917Z,53
2016-04-28T07:54:34.951Z,53
2016-04-28T07:55:34.048Z,53
2016-04-28T07:56:33.066Z,53
2016-04-28T07:57:33.163Z,53
2016-04-28T07:58:31.196Z,53
2016-04-28T07:59:33.418Z,53
2016-04-28T08:00:31.014Z,53
2016-04-28T08:01:29.845Z,53
2016-04-28T08:02:28.629Z,52
2016-04-28T08:03:27.163Z,52
2016-04-28T08:04:25.697Z,52
2016-04-28T08:05:24.246Z,52
2016-04-28T08:06:22.999Z,52
2016-04-28T08:07:21.442Z,52
2016-04-28T08:08:19.532Z,52
2016-04-28T08:09:20.440Z,52
2016-04-28T08:10:18.724Z,52
2016-04-28T08:11:17.009Z,52
2016-04-28T08:12:16.073Z,52
2016-04-28T08:13:13.857Z,52
2016-04-28T08:14:12.125Z,52
2016-04-28T08:15:10.442Z,52
2016-04-28T08:16:08.694Z,51
2016-04-28T08:17:06.978Z,51
2016-04-28T08:18:04.684Z,51
2016-04-28T08:19:05.593Z,50
2016-04-28T08:20:07.173Z,50
2016-04-28T08:21:08.503Z,50
2016-04-28T08:22:09.819Z,49
2016-04-28T08:23:10.900Z,49
2016-04-28T08:24:11.747Z,49
2016-04-28T08:25:12.546Z,49
2016-04-28T08:26:13.517Z,48
2016-04-28T08:27:14.020Z,49
2016-04-28T08:28:15.398Z,48
2016-04-28T08:29:15.839Z,48
2016-04-28T08:30:16.435Z,48
2016-04-28T08:31:16.828Z,48
2016-04-28T08:32:17.018Z,48
2016-04-28T08:33:19.552Z,47
2016-04-28T08:34:17.524Z,47
2016-04-28T08:35:17.635Z,47
2016-04-28T08:36:17.419Z,47
2016-04-28T08:37:17.094Z,47
2016-04-28T08:38:16.971Z,46
2016-04-28T08:39:18.224Z,46
2016-04-28T08:40:17.508Z,46
2016-04-28T08:41:17.183Z,46
2016-04-28T08:42:17.265Z,46
2016-04-28T08:43:17.454Z,46
2016-04-28T08:44:15.863Z,47
2016-04-28T08:45:15.568Z,47
2016-04-28T08:46:15.353Z,47
2016-04-28T08:47:15.153Z,47
2016-04-28T08:48:15.045Z,47
2016-04-28T08:49:16.033Z,47
2016-04-28T08:50:15.957Z,47
2016-04-28T08:51:15.648Z,47
2016-04-28T08:52:15.462Z,47
2016-04-28T08:53:15.262Z,47
2016-04-28T08:54:15.186Z,47
2016-04-28T08:55:14.877Z,47
2016-04-28T08:56:14.817Z,47
2016-04-28T08:57:14.430Z,47
2016-04-28T08:58:14.666Z,47
2016-04-28T08:59:15.372Z,47
2016-04-28T09:00:15.187Z,47
2016-04-28T09:02:14.818Z,47
2016-04-28T09:03:14.602Z,47
2016-04-28T09:04:14.464Z,47
2016-04-28T09:05:14.482Z,47
2016-04-28T09:06:14.657Z,47
2016-04-28T09:07:14.628Z,47
2016-04-28T09:08:14.709Z,47
2016-04-28T09:09:15.665Z,47
2016-04-28T09:10:15.792Z,47
2016-04-28T09:11:15.982Z,47
2016-04-28T09:12:16.501Z,47
2016-04-28T09:13:16.269Z,48
2016-04-28T09:14:16.288Z,48
2016-04-28T09:15:16.649Z,48
2016-04-28T09:16:16.934Z,48
2016-04-28T09:17:17.217Z,48
2016-04-28T09:18:17.595Z,48
2016-04-28T09:19:18.739Z,48
2016-04-28T09:20:19.053Z,48
2016-04-28T09:21:19.259Z,48
2016-04-28T09:22:19.543Z,48
2016-04-28T09:23:19.874Z,48
2016-04-28T09:24:20.189Z,48
2016-04-28T09:26:20.929Z,48
2016-04-28T09:27:21.166Z,48
2016-04-28T09:28:21.622Z,48
2016-04-28T09:29:22.499Z,48
2016-04-28T09:30:22.814Z,48
2016-04-28T09:31:23.145Z,48
2016-04-28T09:32:23.460Z,48
2016-04-28T09:33:23.777Z,48
2016-04-28T09:34:24.091Z,48
2016-04-28T09:35:24.515Z,48
2016-04-28T09:36:24.830Z,48
2016-04-28T09:37:25.021Z,48
2016-04-28T09:38:25.508Z,48
2016-04-28T09:39:26.526Z,48
2016-04-28T09:40:26.716Z,48
2016-04-28T09:41:27.172Z,48
2016-04-28T09:42:27.534Z,48
2016-04-28T09:43:27.694Z,48
2016-04-28T09:44:28.118Z,48
2016-04-28T09:45:28.559Z,48
2016-04-28T09:46:29.139Z,48
2016-04-28T09:47:29.673Z,49
2016-04-28T09:48:30.675Z,49
2016-04-28T09:49:31.584Z,49
2016-04-28T09:50:32.525Z,49
2016-04-28T09:51:33.481Z,49
2016-04-28T09:52:34.702Z,50
2016-04-28T09:53:35.876Z,50
2016-04-28T09:54:37.223Z,50
2016-04-28T09:55:38.538Z,50
2016-04-28T09:56:40.900Z,50
2016-04-28T09:57:44.514Z,50
2016-04-28T09:58:43.202Z,50
2016-04-28T09:59:44.221Z,50
2016-04-28T10:00:45.695Z,50
2016-04-28T10:01:47.275Z,51
2016-04-28T10:02:44.997Z,51
2016-04-28T10:03:42.935Z,51
2016-04-28T10:04:40.703Z,51
2016-04-28T10:05:38.377Z,51
2016-04-28T10:06:36.146Z,51
2016-04-28T10:07:34.039Z,51
2016-04-28T10:08:31.886Z,51
2016-04-28T10:09:32.780Z,51
2016-04-28T10:10:30.688Z,51
2016-04-28T10:11:28.379Z,51
2016-04-28T10:12:26.522Z,51
2016-04-28T10:13:24.148Z,51
2016-04-28T10:14:22.073Z,51
2016-04-28T10:15:19.733Z,51
2016-04-28T10:16:17.610Z,51
2016-04-28T10:17:15.269Z,51
2016-04-28T10:18:13.381Z,51
2016-04-28T10:19:14.384Z,51
2016-04-28T10:20:12.527Z,51
2016-04-28T10:21:10.468Z,51
2016-04-28T10:22:08.486Z,52
2016-04-28T10:23:06.786Z,51
2016-04-28T10:24:04.819Z,52
2016-04-28T10:25:03.088Z,52
2016-04-28T10:26:01.403Z,52
2016-04-28T10:26:59.656Z,52
2016-04-28T10:27:57.970Z,52
2016-04-28T10:28:59.036Z,52
2016-04-28T10:29:57.305Z,52
2016-04-28T10:30:55.603Z,52
2016-04-28T10:31:54.122Z,52
2016-04-28T10:32:52.672Z,52
2016-04-28T10:33:51.346Z,52
2016-04-28T10:34:49.739Z,52
2016-04-28T10:35:48.321Z,52
2016-04-28T10:36:46.821Z,52
2016-04-28T10:37:45.433Z,52
2016-04-28T10:38:46.405Z,53
2016-04-28T10:39:45.218Z,52
2016-04-28T10:40:43.752Z,53
2016-04-28T10:41:42.537Z,53
2016-04-28T10:42:41.696Z,53
2016-04-28T10:43:40.135Z,53
2016-04-28T10:44:38.920Z,53
2016-04-28T10:45:37.704Z,53
2016-04-28T10:46:36.613Z,53
2016-04-28T10:47:35.382Z,53
2016-04-28T10:48:36.368Z,53
2016-04-28T10:49:35.152Z,53
2016-04-28T10:50:33.952Z,53
2016-04-28T10:51:32.892Z,53
2016-04-28T10:52:31.551Z,53
2016-04-28T10:53:30.334Z,53
2016-04-28T10:54:29.244Z,53
2016-04-28T10:55:27.934Z,53
2016-04-28T10:56:26.828Z,53
2016-04-28T10:57:26.236Z,53
2016-04-28T10:58:26.708Z,53
2016-04-28T10:59:25.367Z,53
2016-04-28T11:00:24.291Z,53
2016-04-28T11:01:23.091Z,53
2016-04-28T11:02:21.750Z,53
2016-04-28T11:03:20.550Z,53
2016-04-28T11:04:19.458Z,53
2016-04-28T11:05:18.242Z,53
2016-04-28T11:06:17.041Z,53
2016-04-28T11:07:15.888Z,53
2016-04-28T11:08:16.782Z,53
2016-04-28T11:09:15.580Z,53
2016-04-28T11:10:14.380Z,53
2016-04-28T11:11:13.180Z,53
2016-04-28T11:12:15.355Z,53
2016-04-28T11:13:12.185Z,53
2016-04-28T11:14:09.548Z,53
2016-04-28T11:15:08.347Z,53
2016-04-28T11:16:07.131Z,53
2016-04-28T11:17:05.977Z,53
2016-04-28T11:18:07.105Z,53
2016-04-28T11:19:05.779Z,53
2016-04-28T11:20:04.579Z,53
2016-04-28T11:21:03.372Z,53
2016-04-28T11:22:02.298Z,53
2016-04-28T11:23:00.957Z,53
2016-04-28T11:23:59.756Z,53
2016-04-28T11:24:58.540Z,53
2016-04-28T11:25:57.324Z,53
2016-04-28T11:26:56.389Z,53
2016-04-28T11:27:57.533Z,53
2016-04-28T11:28:56.097Z,53
2016-04-28T11:29:54.788Z,53
2016-04-28T11:30:53.837Z,53
2016-04-28T11:31:52.622Z,53
2016-04-28T11:32:51.672Z,53
2016-04-28T11:33:50.721Z,53
2016-04-28T11:34:49.879Z,53
2016-04-28T11:35:48.801Z,53
2016-04-28T11:36:47.898Z,53
2016-04-28T11:37:48.915Z,53
2016-04-28T11:38:47.715Z,53
2016-04-28T11:39:46.531Z,53
2016-04-28T11:40:45.299Z,53
2016-04-28T11:41:44.099Z,53
2016-04-28T11:42:42.882Z,53
2016-04-28T11:43:41.682Z,53
2016-04-28T11:44:40.482Z,53
2016-04-28T11:45:39.282Z,53
2016-04-28T11:46:38.159Z,53
2016-04-28T11:47:39.271Z,53
2016-04-28T11:48:38.040Z,53
2016-04-28T11:49:36.714Z,53
2016-04-28T11:50:35.514Z,53
2016-04-28T11:51:34.314Z,53
2016-04-28T11:52:33.223Z,53
2016-04-28T11:53:31.881Z,53
2016-04-28T11:54:30.680Z,53
2016-04-28T11:55:29.480Z,53
2016-04-28T11:56:28.311Z,53
2016-04-28T11:57:30.064Z,53
2016-04-28T11:58:30.489Z,53
2016-04-28T11:59:26.913Z,53
2016-04-28T12:00:25.838Z,53
2016-04-28T12:01:24.512Z,53
2016-04-28T12:02:23.296Z,53
2016-04-28T12:03:22.205Z,53
2016-04-28T12:04:20.879Z,53
2016-04-28T12:05:19.851Z,53
2016-04-28T12:06:18.525Z,53
2016-04-28T12:07:19.544Z,53
2016-04-28T12:08:18.343Z,53
2016-04-28T12:09:17.112Z,53
2016-04-28T12:10:15.910Z,53
2016-04-28T12:11:14.820Z,53
2016-04-28T12:12:13.479Z,53
2016-04-28T12:13:12.326Z,53
2016-04-28T12:14:11.093Z,53
2016-04-28T12:15:09.878Z,53
2016-04-28T12:16:08.740Z,53
2016-04-28T12:17:09.743Z,53
2016-04-28T12:18:08.557Z,53
2016-04-28T12:19:07.451Z,53
2016-04-28T12:20:06.235Z,53
2016-04-28T12:21:04.926Z,53
2016-04-28T12:22:03.709Z,53
2016-04-28T12:23:02.509Z,53
2016-04-28T12:24:01.292Z,53
2016-04-28T12:25:00.108Z,52
2016-04-28T12:25:58.828Z,52
2016-04-28T12:26:59.691Z,53
2016-04-28T12:27:58.459Z,52
2016-04-28T12:29:55.715Z,52
2016-04-28T12:30:54.249Z,52
2016-04-28T12:31:52.674Z,52
2016-04-28T12:32:51.205Z,52
2016-04-28T12:33:49.864Z,52
2016-04-28T12:34:48.289Z,52
2016-04-28T12:35:46.993Z,52
2016-04-28T12:36:48.012Z,52
2016-04-28T12:37:46.437Z,52
2016-04-28T12:38:45.096Z,52
2016-04-28T12:39:43.630Z,52
2016-04-28T12:40:42.086Z,52
2016-04-28T12:41:40.713Z,52
2016-04-28T12:42:39.982Z,52
2016-04-28T12:43:37.454Z,52
2016-04-28T12:44:35.894Z,52
2016-04-28T12:45:34.083Z,52
2016-04-28T12:46:35.070Z,52
2016-04-28T12:47:33.464Z,52
2016-04-28T12:48:31.638Z,52
2016-04-28T12:49:29.922Z,52
2016-04-28T12:50:28.206Z,52
2016-04-28T12:51:26.490Z,52
2016-04-28T12:52:24.774Z,52
2016-04-28T12:53:23.105Z,52
2016-04-28T12:54:21.545Z,52
2016-04-28T12:55:19.845Z,52
2016-04-28T12:56:20.706Z,52
2016-04-28T12:57:19.131Z,52
2016-04-28T12:58:17.274Z,52
2016-04-28T12:59:15.683Z,52
2016-04-28T13:00:13.874Z,52
2016-04-28T13:01:12.127Z,52
2016-04-28T13:02:10.426Z,52
2016-04-28T13:03:08.647Z,52
2016-04-28T13:04:07.103Z,52
2016-04-28T13:05:05.325Z,52
2016-04-28T13:06:06.343Z,52
2016-04-28T13:07:04.627Z,52
2016-04-28T13:08:03.005Z,52
2016-04-28T13:09:01.414Z,52
2016-04-28T13:10:57.763Z,52
2016-04-28T13:11:56.047Z,52
2016-04-28T13:12:54.471Z,52
2016-04-28T13:13:52.627Z,52
2016-04-28T13:14:50.974Z,52
2016-04-28T13:15:51.992Z,52
2016-04-28T13:16:50.260Z,52
2016-04-28T13:17:48.560Z,52
2016-04-28T13:18:46.844Z,52
2016-04-28T13:19:45.128Z,52
2016-04-28T13:20:43.412Z,52
2016-04-28T13:21:41.711Z,52
2016-04-28T13:22:39.980Z,52
2016-04-28T13:23:38.264Z,52
2016-04-28T13:24:36.720Z,52
2016-04-28T13:25:37.737Z,52
2016-04-28T13:26:35.912Z,52
2016-04-28T13:27:37.150Z,52
2016-04-28T13:28:32.480Z,52
2016-04-28T13:29:30.765Z,52
2016-04-28T13:30:29.158Z,52
2016-04-28T13:31:27.333Z,52
2016-04-28T13:33:23.900Z,52
2016-04-28T13:34:22.246Z,52
2016-04-28T13:35:23.265Z,51
2016-04-28T13:36:21.299Z,51
2016-04-28T13:37:19.458Z,51
2016-04-28T13:38:17.476Z,51
2016-04-28T13:39:15.400Z,51
2016-04-28T13:40:13.419Z,51
2016-04-28T13:41:11.578Z,51
2016-04-28T13:42:09.408Z,51
2016-04-28T13:43:08.724Z,51
2016-04-28T13:44:05.632Z,51
2016-04-28T13:45:06.620Z,51
2016-04-28T13:46:04.654Z,51
2016-04-28T13:47:02.688Z,51
2016-04-28T13:48:00.878Z,51
2016-04-28T13:48:58.756Z,51
2016-04-28T13:49:56.898Z,51
2016-04-28T13:50:54.945Z,51
2016-04-28T13:51:52.964Z,51
2016-04-28T13:52:50.873Z,51
2016-04-28T13:53:48.719Z,51
2016-04-28T13:54:49.848Z,51
2016-04-28T13:55:47.506Z,51
2016-04-28T13:56:45.306Z,51
2016-04-28T13:57:43.839Z,51
2016-04-28T13:58:40.921Z,51
2016-04-28T13:59:38.611Z,51
2016-04-28T14:00:36.395Z,51
2016-04-28T14:01:34.273Z,51
2016-04-28T14:02:31.946Z,51
2016-04-28T14:03:29.839Z,51
2016-04-28T14:04:30.796Z,51
2016-04-28T14:05:28.564Z,51
2016-04-28T14:06:26.505Z,51
2016-04-28T14:07:24.132Z,51
2016-04-28T14:08:21.900Z,51
2016-04-28T14:09:19.685Z,51
2016-04-28T14:10:17.469Z,51
2016-04-28T14:11:15.283Z,51
2016-04-28T14:12:13.474Z,51
2016-04-28T14:13:10.976Z,51
2016-04-28T14:14:11.869Z,51
2016-04-28T14:15:09.669Z,51